Time;durP1;ratioP1;P1;durP2;ratioP2;P2;SDS_P1;SDS_P2;PMS_P1;PMS_P2;Temp;Humidity;BMP_temperature;BMP_pressure;BME280_temperature;BME280_humidity;BME280_pressure;Samples;Min_cycle;Max_cycle;Signal;HPM_P1;HPM_P2
2022/08/01 00:00:08;;;;;;;6.50;4.10;;;;;;;19.82;100.00;100806.78;687104;28;856;-45
2022/08/01 00:00:28;;;;;;;6.03;3.92;;;;;;;19.84;100.00;100815.53;687833;28;853;-46
2022/08/01 00:00:48;;;;;;;6.40;3.90;;;;;;;19.82;100.00;100809.44;690513;28;859;-46
2022/08/01 00:01:11;;;;;;;6.13;3.97;;;;;;;19.83;100.00;100809.38;688421;28;4404;-46
2022/08/01 00:01:32;;;;;;;6.38;3.88;;;;;;;19.82;100.00;100820.06;687862;28;1062;-46
2022/08/01 00:01:52;;;;;;;7.60;3.93;;;;;;;19.73;100.00;100815.97;690555;28;878;-45
2022/08/01 00:02:12;;;;;;;7.75;4.07;;;;;;;19.66;100.00;100815.34;690067;28;1170;-46
2022/08/01 00:02:33;;;;;;;6.53;3.80;;;;;;;19.76;100.00;100809.66;689151;28;768;-45
2022/08/01 00:02:53;;;;;;;5.83;3.67;;;;;;;19.73;100.00;100815.97;687767;28;1064;-45
2022/08/01 00:03:13;;;;;;;6.18;3.80;;;;;;;19.70;100.00;100811.66;689310;28;1283;-46
2022/08/01 00:03:34;;;;;;;7.30;3.77;;;;;;;19.80;100.00;100820.13;688907;28;1910;-45
2022/08/01 00:03:54;;;;;;;7.00;3.50;;;;;;;19.78;100.00;100818.44;689368;28;4308;-46
2022/08/01 00:04:15;;;;;;;7.57;3.77;;;;;;;19.74;100.00;100818.56;689598;28;1266;-46
2022/08/01 00:04:35;;;;;;;6.20;3.70;;;;;;;19.73;100.00;100821.28;689367;28;753;-45
2022/08/01 00:04:55;;;;;;;5.57;3.67;;;;;;;19.71;100.00;100818.66;689151;28;1034;-45
2022/08/01 00:05:16;;;;;;;5.10;3.57;;;;;;;19.57;100.00;100813.91;689039;28;1165;-45
2022/08/01 00:05:36;;;;;;;5.78;3.80;;;;;;;19.53;100.00;100811.44;689193;28;832;-46
2022/08/01 00:05:57;;;;;;;6.43;3.50;;;;;;;19.53;100.00;100814.09;688831;28;765;-47
2022/08/01 00:06:17;;;;;;;4.93;3.23;;;;;;;19.58;100.00;100809.50;687622;28;2927;-47
2022/08/01 00:06:38;;;;;;;5.33;3.30;;;;;;;19.61;100.00;100812.00;688533;28;1517;-45
2022/08/01 00:06:58;;;;;;;5.30;3.10;;;;;;;19.68;100.00;100812.63;688378;28;4725;-46
2022/08/01 00:07:18;;;;;;;6.10;3.40;;;;;;;19.71;100.00;100817.81;688117;28;1166;-45
2022/08/01 00:07:39;;;;;;;5.10;3.10;;;;;;;19.72;100.00;100816.88;689506;28;1079;-46
2022/08/01 00:07:59;;;;;;;5.10;3.00;;;;;;;19.81;100.00;100808.56;690506;28;1391;-45
2022/08/01 00:08:19;;;;;;;6.07;3.17;;;;;;;19.76;100.00;100807.00;691494;28;1221;-46
2022/08/01 00:08:40;;;;;;;6.43;3.28;;;;;;;19.78;100.00;100810.47;693802;28;1165;-46
2022/08/01 00:09:00;;;;;;;6.60;3.30;;;;;;;19.70;100.00;100811.66;691458;28;1114;-46
2022/08/01 00:09:21;;;;;;;5.83;3.10;;;;;;;19.70;100.00;100814.31;691544;28;1254;-46
2022/08/01 00:09:41;;;;;;;5.65;3.00;;;;;;;19.69;100.00;100817.88;692280;28;1304;-46
2022/08/01 00:10:07;;;;;;;4.97;2.90;;;;;;;19.66;100.00;100810.03;690800;28;4453;-46
2022/08/01 00:10:27;;;;;;;5.20;3.30;;;;;;;19.65;100.00;100808.31;688327;28;1229;-46
2022/08/01 00:10:47;;;;;;;5.07;3.20;;;;;;;19.62;100.00;100810.22;688135;28;1083;-46
2022/08/01 00:11:09;;;;;;;4.78;2.90;;;;;;;19.59;100.00;100811.19;687842;28;1091;-47
2022/08/01 00:11:29;;;;;;;5.72;3.20;;;;;;;19.58;100.00;100814.78;688395;28;1137;-46
2022/08/01 00:11:49;;;;;;;5.67;3.10;;;;;;;19.61;100.00;100814.66;689014;28;1119;-45
2022/08/01 00:12:10;;;;;;;5.75;3.00;;;;;;;19.61;100.00;100811.16;688646;28;1115;-46
2022/08/01 00:12:31;;;;;;;5.60;2.97;;;;;;;19.62;100.00;100808.44;689577;28;1020;-46
2022/08/01 00:12:51;;;;;;;5.60;3.23;;;;;;;19.61;100.00;100814.66;689027;28;1084;-46
2022/08/01 00:13:11;;;;;;;4.43;3.07;;;;;;;19.59;100.00;100813.00;689175;28;4333;-46
2022/08/01 00:13:32;;;;;;;6.43;3.27;;;;;;;19.53;100.00;100812.31;689613;28;1039;-47
2022/08/01 00:13:53;;;;;;;9.23;3.23;;;;;;;19.51;100.00;100813.31;688912;28;1499;-47
2022/08/01 00:14:13;;;;;;;5.85;2.92;;;;;;;19.49;100.00;100815.16;686516;28;1242;-45
2022/08/01 00:14:33;;;;;;;5.90;3.00;;;;;;;19.46;100.00;100812.63;687851;28;1172;-46
2022/08/01 00:14:54;;;;;;;6.13;3.13;;;;;;;19.45;100.00;100811.75;686510;28;1193;-45
2022/08/01 00:15:16;;;;;;;5.13;3.20;;;;;;;19.44;100.00;100811.81;684334;28;1204;-47
2022/08/01 00:15:37;;;;;;;5.43;3.30;;;;;;;19.43;100.00;100810.97;684660;28;1290;-46
2022/08/01 00:15:57;;;;;;;5.13;3.13;;;;;;;19.39;100.00;100809.34;686976;28;4631;-47
2022/08/01 00:16:18;;;;;;;5.23;2.80;;;;;;;19.43;100.00;100810.09;688022;28;1137;-45
2022/08/01 00:16:38;;;;;;;4.70;2.90;;;;;;;19.42;100.00;100808.38;688891;28;1412;-48
2022/08/01 00:16:59;;;;;;;5.20;3.00;;;;;;;19.42;100.00;100811.03;690017;28;871;-45
2022/08/01 00:17:19;;;;;;;5.27;2.90;;;;;;;19.42;100.00;100811.03;689898;28;1119;-45
2022/08/01 00:17:40;;;;;;;4.90;2.97;;;;;;;19.43;100.00;100812.75;686045;28;1140;-45
2022/08/01 00:18:01;;;;;;;5.13;3.05;;;;;;;19.44;100.00;100814.47;686542;28;1367;-46
2022/08/01 00:18:21;;;;;;;6.50;3.10;;;;;;;19.45;100.00;100811.75;687914;28;1362;-45
2022/08/01 00:18:42;;;;;;;5.43;3.05;;;;;;;19.40;100.00;100811.09;687915;28;1223;-47
2022/08/01 00:19:02;;;;;;;4.65;3.00;;;;;;;19.49;100.00;100809.84;687899;28;4363;-45
2022/08/01 00:19:23;;;;;;;5.47;3.10;;;;;;;19.50;100.00;100814.22;685533;28;3653;-45
2022/08/01 00:19:43;;;;;;;5.80;3.20;;;;;;;19.45;100.00;100811.75;689682;28;1137;-45
2022/08/01 00:20:06;;;;;;;5.40;3.13;;;;;;;19.40;100.00;100811.09;688239;28;1206;-46
2022/08/01 00:20:27;;;;;;;5.53;2.92;;;;;;;19.39;100.00;100812.84;689829;28;1071;-46
2022/08/01 00:20:47;;;;;;;5.60;2.90;;;;;;;19.40;100.00;100817.25;688426;28;1099;-45
2022/08/01 00:21:08;;;;;;;4.87;2.87;;;;;;;19.40;100.00;100813.72;689494;28;1132;-46
2022/08/01 00:21:28;;;;;;;4.68;2.80;;;;;;;19.38;100.00;100812.91;689353;28;1204;-46
2022/08/01 00:21:49;;;;;;;4.40;2.83;;;;;;;19.36;100.00;100810.31;688967;28;1075;-46
2022/08/01 00:22:09;;;;;;;4.43;3.00;;;;;;;19.36;100.00;100815.63;691945;28;4580;-45
2022/08/01 00:22:33;;;;;;;4.27;2.80;;;;;;;19.34;100.00;100812.19;691583;28;1162;-47
2022/08/01 00:22:53;;;;;;;5.10;3.00;;;;;;;19.39;100.00;100814.66;692299;28;1245;-46
2022/08/01 00:23:14;;;;;;;4.70;2.80;;;;;;;19.36;100.00;100815.63;691171;28;1100;-46
2022/08/01 00:23:34;;;;;;;5.13;2.77;;;;;;;19.34;100.00;100809.53;691396;28;1973;-46
2022/08/01 00:23:54;;;;;;;4.60;2.87;;;;;;;19.31;100.00;100809.63;689833;28;1253;-46
2022/08/01 00:24:15;;;;;;;4.75;2.90;;;;;;;19.29;100.00;100808.84;688055;28;1087;-46
2022/08/01 00:24:35;;;;;;;4.40;2.87;;;;;;;19.29;100.00;100814.16;683784;28;1117;-47
2022/08/01 00:24:55;;;;;;;6.30;3.20;;;;;;;19.27;100.00;100812.47;684571;28;4379;-45
2022/08/01 00:25:16;;;;;;;5.80;3.20;;;;;;;19.26;100.00;100805.44;684070;28;1124;-46
2022/08/01 00:25:36;;;;;;;4.80;3.20;;;;;;;19.36;100.00;100812.97;685843;28;1156;-47
2022/08/01 00:25:57;;;;;;;4.55;3.15;;;;;;;19.45;100.00;100813.53;687261;28;1163;-49
2022/08/01 00:26:18;;;;;;;4.47;2.93;;;;;;;19.47;100.00;100815.22;687693;28;1214;-46
2022/08/01 00:26:38;;;;;;;4.72;2.97;;;;;;;19.41;100.00;100810.13;688411;28;1402;-45
2022/08/01 00:26:58;;;;;;;5.97;3.10;;;;;;;19.40;100.00;100811.94;681548;28;2321;-47
2022/08/01 00:27:19;;;;;;;7.30;2.90;;;;;;;19.38;100.00;100813.78;680262;28;1049;-45
2022/08/01 00:27:39;;;;;;;6.53;3.33;;;;;;;19.34;100.00;100812.19;677984;28;1104;-46
2022/08/01 00:28:00;;;;;;;6.30;3.23;;;;;;;19.35;100.00;100811.25;679792;28;4804;-47
2022/08/01 00:28:20;;;;;;;4.70;3.00;;;;;;;19.31;100.00;100812.28;677374;28;1203;-48
2022/08/01 00:28:41;;;;;;;5.30;3.00;;;;;;;19.27;100.00;100810.69;681226;28;1294;-45
2022/08/01 00:29:01;;;;;;;5.25;3.00;;;;;;;19.26;100.00;100810.75;687165;28;1127;-46
2022/08/01 00:29:22;;;;;;;4.50;2.97;;;;;;;19.27;100.00;100805.38;689538;28;1288;-46
2022/08/01 00:29:42;;;;;;;5.75;3.20;;;;;;;19.25;100.00;100817.84;689054;28;1167;-46
2022/08/01 00:30:03;;;;;;;6.17;3.10;;;;;;;19.26;100.00;100818.69;689193;28;1223;-45
2022/08/01 00:30:23;;;;;;;5.57;2.80;;;;;;;19.26;100.00;100813.38;686710;28;917;-47
2022/08/01 00:30:44;;;;;;;4.93;2.90;;;;;;;19.26;100.00;100808.09;686513;28;1075;-47
2022/08/01 00:31:04;;;;;;;4.72;3.00;;;;;;;19.30;100.00;100804.41;686350;28;4369;-46
2022/08/01 00:31:25;;;;;;;4.83;2.70;;;;;;;19.30;100.00;100807.06;687060;28;1065;-46
2022/08/01 00:31:45;;;;;;;4.93;3.00;;;;;;;19.37;100.00;100814.72;686716;28;979;-45
2022/08/01 00:32:06;;;;;;;4.73;3.10;;;;;;;19.39;100.00;100810.19;689880;28;1012;-45
2022/08/01 00:32:26;;;;;;;4.97;2.80;;;;;;;19.36;100.00;100804.19;691801;28;985;-46
2022/08/01 00:32:46;;;;;;;5.27;2.87;;;;;;;19.32;100.00;100808.72;691380;28;996;-45
2022/08/01 00:33:07;;;;;;;5.45;2.90;;;;;;;19.30;100.00;100809.69;687099;28;1095;-46
2022/08/01 00:33:27;;;;;;;5.40;2.80;;;;;;;19.30;100.00;100799.09;689759;28;1241;-47
2022/08/01 00:33:48;;;;;;;5.10;3.00;;;;;;;19.30;100.00;100812.34;688788;28;1063;-47
2022/08/01 00:34:08;;;;;;;5.03;3.03;;;;;;;19.28;100.00;100811.56;688024;28;4396;-45
2022/08/01 00:34:28;;;;;;;4.47;2.70;;;;;;;19.23;100.00;100809.06;688885;28;989;-46
2022/08/01 00:34:49;;;;;;;4.85;2.92;;;;;;;19.22;100.00;100818.81;689187;28;1227;-46
2022/08/01 00:35:10;;;;;;;4.93;3.20;;;;;;;19.21;100.00;100817.06;690347;28;1012;-46
2022/08/01 00:35:31;;;;;;;4.57;2.80;;;;;;;19.22;100.00;100824.13;688996;28;979;-47
2022/08/01 00:35:51;;;;;;;4.83;2.87;;;;;;;19.19;100.00;100816.28;688897;28;1155;-46
2022/08/01 00:36:12;;;;;;;4.97;3.00;;;;;;;19.17;100.00;100815.47;689111;28;980;-46
2022/08/01 00:36:32;;;;;;;4.55;3.03;;;;;;;19.22;100.00;100817.97;689721;28;1278;-47
2022/08/01 00:36:52;;;;;;;5.10;2.97;;;;;;;19.20;100.00;100811.84;688536;28;1250;-45
2022/08/01 00:37:13;;;;;;;5.18;3.05;;;;;;;19.18;100.00;100816.34;688976;28;4514;-45
2022/08/01 00:37:33;;;;;;;5.30;3.10;;;;;;;19.18;100.00;100813.69;688551;28;1048;-46
2022/08/01 00:37:53;;;;;;;5.37;3.03;;;;;;;19.22;100.00;100820.63;689098;28;1044;-46
2022/08/01 00:38:14;;;;;;;5.97;3.00;;;;;;;19.16;100.00;100812.88;688680;28;1506;-46
2022/08/01 00:38:34;;;;;;;5.47;3.07;;;;;;;19.14;100.00;100809.44;689855;28;1555;-45
2022/08/01 00:38:54;;;;;;;5.78;3.10;;;;;;;19.14;100.00;100817.38;688686;28;1178;-46
2022/08/01 00:39:15;;;;;;;4.67;2.83;;;;;;;19.14;100.00;100820.91;689951;28;1483;-45
2022/08/01 00:39:35;;;;;;;5.23;2.97;;;;;;;19.10;100.00;100815.78;690150;28;1452;-46
2022/08/01 00:39:55;;;;;;;4.90;2.88;;;;;;;19.11;100.00;100812.22;689052;28;4583;-46
2022/08/01 00:40:16;;;;;;;5.17;2.70;;;;;;;19.13;100.00;100810.34;689728;28;1373;-45
2022/08/01 00:40:36;;;;;;;4.73;2.90;;;;;;;19.13;100.00;100811.22;690760;28;1258;-46
2022/08/01 00:40:57;;;;;;;4.82;2.80;;;;;;;19.16;100.00;100815.53;688796;28;1150;-46
2022/08/01 00:41:17;;;;;;;5.07;2.92;;;;;;;19.17;100.00;100810.16;687527;28;1381;-47
2022/08/01 00:41:38;;;;;;;6.17;3.13;;;;;;;19.13;100.00;100813.84;688264;28;1188;-47
2022/08/01 00:41:59;;;;;;;5.22;2.80;;;;;;;19.13;100.00;100818.31;687478;28;5445;-46
2022/08/01 00:42:20;;;;;;;4.35;2.60;;;;;;;19.11;100.00;100814.88;687758;28;1549;-45
2022/08/01 00:42:41;;;;;;;4.90;2.90;;;;;;;19.07;100.00;100814.09;688383;28;1713;-46
2022/08/01 00:43:01;;;;;;;4.68;2.95;;;;;;;19.08;100.00;100817.59;687464;28;4402;-47
2022/08/01 00:43:22;;;;;;;4.40;3.00;;;;;;;19.08;100.00;100809.66;688151;28;1080;-47
2022/08/01 00:43:42;;;;;;;4.57;3.03;;;;;;;19.08;100.00;100812.31;687195;28;1926;-46
2022/08/01 00:44:06;;;;;;;5.00;2.97;;;;;;;19.10;100.00;100815.78;687400;28;1140;-45
2022/08/01 00:44:27;;;;;;;6.22;2.80;;;;;;;19.09;100.00;100808.75;686645;28;1188;-45
2022/08/01 00:44:47;;;;;;;6.40;3.03;;;;;;;19.11;100.00;100814.88;686644;28;1350;-46
2022/08/01 00:45:08;;;;;;;5.50;3.20;;;;;;;19.13;100.00;100805.06;685646;28;1111;-45
2022/08/01 00:45:29;;;;;;;5.82;3.17;;;;;;;19.12;100.00;100811.28;684913;28;1827;-46
2022/08/01 00:45:49;;;;;;;6.13;3.10;;;;;;;19.12;100.00;100809.50;687918;28;1167;-47
2022/08/01 00:46:10;;;;;;;5.27;2.90;;;;;;;19.13;100.00;100807.72;687943;28;4478;-45
2022/08/01 00:46:30;;;;;;;4.67;2.93;;;;;;;19.20;100.00;100803.91;688845;28;1451;-46
2022/08/01 00:46:50;;;;;;;4.60;2.80;;;;;;;19.16;100.00;100813.75;690467;28;1253;-48
2022/08/01 00:47:11;;;;;;;4.15;2.60;;;;;;;19.08;100.00;100809.66;687775;28;1151;-46
2022/08/01 00:47:31;;;;;;;4.60;2.83;;;;;;;19.07;100.00;100806.16;691744;28;1269;-45
2022/08/01 00:47:51;;;;;;;5.57;2.87;;;;;;;19.05;100.00;100811.53;688514;28;1274;-46
2022/08/01 00:48:12;;;;;;;5.32;2.70;;;;;;;19.07;100.00;100803.50;688726;28;1255;-47
2022/08/01 00:48:32;;;;;;;5.10;2.73;;;;;;;19.06;100.00;100809.72;688668;28;1148;-46
2022/08/01 00:48:54;;;;;;;5.30;2.97;;;;;;;19.10;100.00;100808.69;688307;28;1359;-46
2022/08/01 00:49:15;;;;;;;5.05;2.88;;;;;;;19.09;100.00;100806.09;687836;28;4669;-46
2022/08/01 00:49:35;;;;;;;4.70;2.90;;;;;;;19.10;100.00;100806.03;688086;28;1718;-48
2022/08/01 00:49:56;;;;;;;5.97;2.90;;;;;;;19.12;100.00;100806.84;688648;28;1595;-46
2022/08/01 00:50:16;;;;;;;4.40;2.63;;;;;;;19.14;100.00;100814.75;686506;28;1286;-45
2022/08/01 00:50:38;;;;;;;6.18;2.90;;;;;;;19.13;100.00;100810.34;686608;28;1233;-46
2022/08/01 00:50:58;;;;;;;5.00;2.83;;;;;;;19.12;100.00;100811.28;685360;28;1196;-48
2022/08/01 00:51:18;;;;;;;5.07;2.90;;;;;;;19.19;100.00;100815.41;686383;28;1326;-46
2022/08/01 00:51:39;;;;;;;4.37;2.90;;;;;;;19.22;100.00;100802.91;684701;28;1222;-45
2022/08/01 00:52:00;;;;;;;5.25;2.95;;;;;;;19.27;100.00;100808.03;685398;28;4574;-45
2022/08/01 00:52:20;;;;;;;5.70;3.08;;;;;;;19.24;100.00;100805.50;688364;28;1192;-46
2022/08/01 00:52:43;;;;;;;4.93;2.80;;;;;;;19.22;100.00;100808.22;692168;28;1178;-45
2022/08/01 00:53:03;;;;;;;4.38;2.70;;;;;;;19.21;100.00;100809.13;689363;28;1266;-46
2022/08/01 00:53:25;;;;;;;4.07;2.73;;;;;;;19.16;100.00;100808.47;689234;28;1251;-46
2022/08/01 00:53:45;;;;;;;4.57;2.70;;;;;;;19.12;100.00;100808.63;688466;28;982;-48
2022/08/01 00:54:06;;;;;;;5.10;2.93;;;;;;;19.12;100.00;100811.28;687966;28;1603;-47
2022/08/01 00:54:27;;;;;;;4.80;2.90;;;;;;;19.08;100.00;100807.00;689851;28;1190;-46
2022/08/01 00:54:47;;;;;;;5.05;2.97;;;;;;;19.05;100.00;100815.94;688981;28;1299;-46
2022/08/01 00:55:09;;;;;;;4.53;2.97;;;;;;;19.01;100.00;100809.91;690548;28;4410;-47
2022/08/01 00:55:31;;;;;;;5.68;2.83;;;;;;;19.06;100.00;100809.72;691307;28;1291;-46
2022/08/01 00:55:51;;;;;;;5.80;2.80;;;;;;;19.09;100.00;100814.03;685793;28;1865;-46
2022/08/01 00:56:12;;;;;;;6.07;2.60;;;;;;;19.18;100.00;100805.75;686522;28;1207;-47
2022/08/01 00:56:32;;;;;;;4.90;2.50;;;;;;;19.20;100.00;100801.25;687383;28;1270;-48
2022/08/01 00:56:54;;;;;;;5.20;2.77;;;;;;;19.19;100.00;100799.50;688214;28;1440;-45
2022/08/01 00:57:14;;;;;;;4.57;2.83;;;;;;;19.24;100.00;100805.50;688179;28;1504;-46
2022/08/01 00:57:34;;;;;;;4.90;2.70;;;;;;;19.22;100.00;100805.56;687381;28;1649;-45
2022/08/01 00:57:56;;;;;;;4.88;2.88;;;;;;;19.22;100.00;100810.88;686788;28;4312;-46
2022/08/01 00:58:16;;;;;;;4.30;2.80;;;;;;;19.23;100.00;100801.13;687090;28;1184;-45
2022/08/01 00:58:37;;;;;;;4.63;2.70;;;;;;;19.26;100.00;100810.75;683601;28;1153;-46
2022/08/01 00:58:58;;;;;;;4.33;2.60;;;;;;;19.19;100.00;100808.34;684398;28;1274;-46
2022/08/01 00:59:21;;;;;;;4.32;2.70;;;;;;;19.26;100.00;100806.31;682940;28;1627;-45
2022/08/01 00:59:41;;;;;;;4.38;2.78;;;;;;;19.32;100.00;100800.78;684789;28;1207;-45
2022/08/01 01:00:04;;;;;;;4.93;2.80;;;;;;;19.36;100.00;100809.47;683610;28;1374;-46
2022/08/01 01:00:25;;;;;;;4.97;2.80;;;;;;;19.31;100.00;100809.63;685373;28;1116;-45
2022/08/01 01:00:46;;;;;;;5.32;2.85;;;;;;;19.26;100.00;100803.66;685649;28;1545;-46
2022/08/01 01:01:06;;;;;;;5.00;2.80;;;;;;;19.33;100.00;100807.81;686206;28;4601;-45
2022/08/01 01:01:26;;;;;;;5.10;2.78;;;;;;;19.31;100.00;100804.34;689191;28;1386;-47
2022/08/01 01:01:47;;;;;;;5.50;2.87;;;;;;;19.29;100.00;100805.34;688571;28;1393;-46
2022/08/01 01:02:08;;;;;;;5.30;2.97;;;;;;;19.26;100.00;100811.63;689121;28;1370;-47
2022/08/01 01:02:28;;;;;;;5.05;2.70;;;;;;;19.23;100.00;100807.31;688830;28;1508;-46
2022/08/01 01:02:49;;;;;;;4.87;2.80;;;;;;;19.20;100.00;100809.19;688955;28;1397;-45
2022/08/01 01:03:09;;;;;;;4.47;2.80;;;;;;;19.22;100.00;100802.91;688481;28;1563;-46
2022/08/01 01:03:30;;;;;;;3.80;2.70;;;;;;;19.32;100.00;100798.13;688801;28;1159;-47
2022/08/01 01:03:52;;;;;;;5.53;2.70;;;;;;;19.30;100.00;100799.97;688830;28;1436;-47
2022/08/01 01:04:15;;;;;;;5.35;2.78;;;;;;;19.25;100.00;100801.94;691114;28;4520;-46
2022/08/01 01:04:36;;;;;;;5.10;2.80;;;;;;;19.24;100.00;100805.50;690474;28;1238;-46
2022/08/01 01:04:57;;;;;;;5.00;3.00;;;;;;;19.29;100.00;100808.00;687843;28;1303;-46
2022/08/01 01:05:17;;;;;;;5.00;2.83;;;;;;;19.31;100.00;100800.84;689568;28;1612;-46
2022/08/01 01:05:54;;;;;;;4.47;2.80;;;;;;;19.28;100.00;100801.81;688686;28;1349;-47
2022/08/01 01:06:53;;;;;;;5.03;2.63;;;;;;;19.20;100.00;100809.19;688444;28;1329;-46
2022/08/01 01:07:24;;;;;;;5.93;3.13;;;;;;;19.18;100.00;100808.41;685841;28;4325;-45
2022/08/01 01:07:54;;;;;;;5.07;2.97;;;;;;;19.22;100.00;100802.06;687061;28;1555;-45
2022/08/01 01:08:22;;;;;;;5.10;2.75;;;;;;;19.23;100.00;100802.00;686809;28;1326;-49
2022/08/01 01:08:53;;;;;;;5.43;2.90;;;;;;;19.20;100.00;100801.25;688278;28;1350;-47
2022/08/01 01:09:41;;;;;;;5.32;2.90;;;;;;;19.20;100.00;100799.47;687300;28;1493;-47
2022/08/01 01:10:15;;;;;;;4.88;2.90;;;;;;;19.22;100.00;100805.56;686072;28;4308;-45
2022/08/01 01:10:53;;;;;;;5.53;3.30;;;;;;;19.31;100.00;100806.97;686767;28;1480;-46
2022/08/01 01:11:21;;;;;;;4.55;2.80;;;;;;;19.31;100.00;100804.34;689678;28;1381;-45
2022/08/01 01:12:03;;;;;;;5.05;2.92;;;;;;;19.29;100.00;100803.53;689592;28;1393;-47
2022/08/01 01:13:05;;;;;;;5.68;3.10;;;;;;;19.32;100.00;100813.16;689585;28;1385;-49
2022/08/01 01:13:41;;;;;;;5.43;2.70;;;;;;;19.25;100.00;100801.94;687139;28;4766;-45
2022/08/01 01:14:08;;;;;;;4.72;2.90;;;;;;;19.19;100.00;100800.38;688488;28;1357;-47
2022/08/01 01:14:32;;;;;;;4.75;2.92;;;;;;;19.17;100.00;100804.88;687284;28;1255;-46
2022/08/01 01:15:01;;;;;;;4.22;2.92;;;;;;;19.20;100.00;100809.19;688659;28;1504;-50
2022/08/01 01:15:41;;;;;;;4.70;3.10;;;;;;;19.27;100.00;100804.53;689730;28;1182;-47
2022/08/01 01:16:08;;;;;;;6.13;2.97;;;;;;;19.26;100.00;100808.97;690583;28;4379;-45
2022/08/01 01:16:30;;;;;;;4.82;2.90;;;;;;;19.22;100.00;100813.50;690001;28;1503;-46
2022/08/01 01:16:53;;;;;;;4.68;2.92;;;;;;;19.20;100.00;100807.44;689743;28;1286;-45
2022/08/01 01:17:17;;;;;;;5.05;3.20;;;;;;;19.20;100.00;100806.53;685003;28;1584;-46
2022/08/01 01:17:57;;;;;;;5.65;3.10;;;;;;;19.17;100.00;100804.88;685338;28;1374;-45
2022/08/01 01:18:30;;;;;;;4.45;3.08;;;;;;;19.19;100.00;100810.09;685917;28;1053;-47
2022/08/01 01:18:55;;;;;;;4.43;2.97;;;;;;;19.22;100.00;100802.06;688156;28;1044;-46
2022/08/01 01:19:23;;;;;;;5.43;3.00;;;;;;;19.31;100.00;100811.44;687847;28;4986;-47
2022/08/01 01:19:50;;;;;;;5.95;2.95;;;;;;;19.27;100.00;100808.03;688969;28;1429;-45
2022/08/01 01:20:13;;;;;;;4.70;3.03;;;;;;;19.23;100.00;100807.31;688428;28;1075;-46
2022/08/01 01:20:38;;;;;;;4.43;2.90;;;;;;;19.33;100.00;100807.81;688074;28;1274;-45
2022/08/01 01:21:17;;;;;;;4.55;2.90;;;;;;;19.35;100.00;100808.59;688683;28;1515;-47
2022/08/01 01:22:14;;;;;;;4.63;3.13;;;;;;;19.29;100.00;100806.19;688317;28;1156;-46
2022/08/01 01:23:10;;;;;;;4.80;2.80;;;;;;;19.30;100.00;100804.41;688137;28;4987;-46
2022/08/01 01:24:03;;;;;;;4.70;3.20;;;;;;;19.31;100.00;100806.13;689819;28;1165;-46
2022/08/01 01:24:42;;;;;;;5.18;3.03;;;;;;;19.23;100.00;100806.41;688785;28;1489;-47
2022/08/01 01:25:18;;;;;;;4.35;2.85;;;;;;;19.23;100.00;100817.00;686535;28;4395;-45
2022/08/01 01:25:47;;;;;;;4.68;2.90;;;;;;;19.32;100.00;100808.72;686999;28;1156;-45
2022/08/01 01:26:19;;;;;;;5.20;3.08;;;;;;;19.33;100.00;100807.81;687382;28;1564;-46
2022/08/01 01:26:55;;;;;;;4.45;3.00;;;;;;;19.38;100.00;100805.84;688920;28;1234;-46
2022/08/01 01:27:27;;;;;;;4.93;3.03;;;;;;;19.37;100.00;100805.88;689229;28;1177;-47
2022/08/01 01:28:24;;;;;;;5.10;3.10;;;;;;;19.34;100.00;100804.25;689949;28;1410;-46
2022/08/01 01:29:13;;;;;;;4.07;2.85;;;;;;;19.35;100.00;100803.28;689440;28;5068;-46
2022/08/01 01:29:48;;;;;;;4.38;2.92;;;;;;;19.29;100.00;100802.69;690539;28;1394;-46
2022/08/01 01:30:08;;;;;;;4.40;2.83;;;;;;;19.27;100.00;100815.13;690123;28;1587;-45
2022/08/01 01:30:31;;;;;;;5.72;3.10;;;;;;;19.28;100.00;100809.75;689681;28;1544;-47
2022/08/01 01:30:54;;;;;;;4.45;3.17;;;;;;;19.33;100.00;100807.81;689694;28;1035;-47
2022/08/01 01:31:19;;;;;;;5.20;3.00;;;;;;;19.28;100.00;100801.81;685672;28;915;-45
2022/08/01 01:32:33;;;;;;;5.00;3.17;;;;;;;19.23;100.00;100803.78;688721;28;1483;-46
2022/08/01 01:32:58;;;;;;;4.97;2.92;;;;;;;19.28;100.00;100812.41;685962;28;1999;-46
2022/08/01 01:33:20;;;;;;;5.20;2.97;;;;;;;19.28;100.00;100807.09;684773;28;1389;-46
2022/08/01 01:33:41;;;;;;;6.68;3.40;;;;;;;19.28;100.00;100807.09;686919;28;1183;-45
2022/08/01 01:34:03;;;;;;;5.20;3.30;;;;;;;19.28;100.00;100806.25;689991;28;4881;-46
2022/08/01 01:34:28;;;;;;;5.07;3.10;;;;;;;19.32;100.00;100805.22;689619;28;1060;-46
2022/08/01 01:34:51;;;;;;;4.90;2.88;;;;;;;19.34;100.00;100811.31;689007;28;925;-45
2022/08/01 01:35:20;;;;;;;4.72;2.97;;;;;;;19.31;100.00;100806.13;690190;28;1219;-46
2022/08/01 01:35:47;;;;;;;5.00;3.00;;;;;;;19.30;100.00;100810.59;690966;28;1119;-45
2022/08/01 01:36:09;;;;;;;5.13;3.30;;;;;;;19.29;100.00;100814.16;691970;28;869;-45
2022/08/01 01:36:32;;;;;;;4.68;3.10;;;;;;;19.27;100.00;100804.53;691099;28;1030;-46
2022/08/01 01:36:55;;;;;;;5.50;3.50;;;;;;;19.27;100.00;100813.31;691874;28;1193;-46
2022/08/01 01:37:20;;;;;;;5.28;3.13;;;;;;;19.23;100.00;100809.94;688171;28;4672;-47
2022/08/01 01:37:43;;;;;;;6.13;3.13;;;;;;;19.21;100.00;100810.94;691547;28;1079;-47
2022/08/01 01:38:18;;;;;;;6.03;3.20;;;;;;;19.17;100.00;100820.78;686093;28;1132;-46
2022/08/01 01:38:43;;;;;;;7.40;3.20;;;;;;;19.22;100.00;100815.31;685959;28;1092;-45
2022/08/01 01:39:04;;;;;;;6.60;3.53;;;;;;;19.25;100.00;100817.84;686355;28;2010;-46
2022/08/01 01:39:29;;;;;;;6.43;3.40;;;;;;;19.26;100.00;100822.22;684539;28;1103;-45
2022/08/01 01:39:51;;;;;;;5.05;3.13;;;;;;;19.32;100.00;100816.66;686013;28;1088;-45
2022/08/01 01:40:13;;;;;;;5.00;3.40;;;;;;;19.43;100.00;100818.06;686412;28;4516;-46
2022/08/01 01:40:34;;;;;;;4.72;3.47;;;;;;;19.39;100.00;100810.19;687771;28;1060;-47
2022/08/01 01:40:57;;;;;;;5.13;3.47;;;;;;;19.36;100.00;100810.31;687653;28;1172;-46
2022/08/01 01:41:18;;;;;;;5.22;3.15;;;;;;;19.33;100.00;100818.41;688194;28;1296;-45
2022/08/01 01:41:39;;;;;;;5.60;3.17;;;;;;;19.20;100.00;100820.69;688498;28;1096;-45
2022/08/01 01:42:01;;;;;;;5.28;3.33;;;;;;;19.22;100.00;100817.97;687106;28;4820;-47
2022/08/01 01:42:25;;;;;;;5.75;3.40;;;;;;;19.20;100.00;100820.69;684606;28;1504;-45
2022/08/01 01:42:47;;;;;;;6.00;3.47;;;;;;;19.19;100.00;100818.06;684218;28;1278;-46
2022/08/01 01:43:11;;;;;;;6.38;3.30;;;;;;;19.15;100.00;100819.97;686086;28;4316;-46
2022/08/01 01:43:32;;;;;;;6.25;3.40;;;;;;;19.21;100.00;100822.38;685660;28;1289;-46
2022/08/01 01:43:53;;;;;;;6.32;3.40;;;;;;;19.31;100.00;100814.09;685203;28;1147;-46
2022/08/01 01:44:15;;;;;;;4.80;3.35;;;;;;;19.38;100.00;100818.22;685500;28;1196;-46
2022/08/01 01:44:40;;;;;;;5.68;3.50;;;;;;;19.34;100.00;100821.91;688522;28;1127;-48
2022/08/01 01:45:03;;;;;;;5.68;3.60;;;;;;;19.28;100.00;100820.38;687101;28;1163;-46
2022/08/01 01:45:26;;;;;;;5.00;3.38;;;;;;;19.25;100.00;100817.00;688316;28;1207;-45
2022/08/01 01:45:48;;;;;;;5.78;3.40;;;;;;;19.28;100.00;100822.16;683766;28;1195;-45
2022/08/01 01:46:10;;;;;;;5.80;3.60;;;;;;;19.32;100.00;100816.66;687442;28;4410;-46
2022/08/01 01:46:31;;;;;;;5.57;3.42;;;;;;;19.33;100.00;100815.75;686550;28;1124;-47
2022/08/01 01:46:52;;;;;;;5.90;3.40;;;;;;;19.33;100.00;100823.72;684316;28;986;-46
2022/08/01 01:47:14;;;;;;;6.20;3.60;;;;;;;19.36;100.00;100812.97;680995;28;1368;-46
2022/08/01 01:47:37;;;;;;;6.10;3.50;;;;;;;19.39;100.00;100818.16;683373;28;1082;-45
2022/08/01 01:47:59;;;;;;;5.30;3.40;;;;;;;19.33;100.00;100814.91;686016;28;1096;-45
2022/08/01 01:48:21;;;;;;;5.30;3.40;;;;;;;19.29;100.00;100821.25;685297;28;1574;-46
2022/08/01 01:48:44;;;;;;;5.32;3.20;;;;;;;19.23;100.00;100814.38;685938;28;1244;-45
2022/08/01 01:49:09;;;;;;;5.30;3.20;;;;;;;19.20;100.00;100819.78;686254;28;4782;-46
2022/08/01 01:49:32;;;;;;;5.70;3.40;;;;;;;19.17;100.00;100822.56;690496;28;1148;-46
2022/08/01 01:49:55;;;;;;;5.75;3.50;;;;;;;19.16;100.00;100820.84;690323;28;1257;-45
2022/08/01 01:50:19;;;;;;;5.85;3.50;;;;;;;19.30;100.00;100825.59;689033;28;936;-47
2022/08/01 01:50:42;;;;;;;5.50;3.17;;;;;;;19.26;100.00;100818.69;687672;28;1145;-46